createdAt,value
2018-03-25T00:02:21.254Z,1.90
2018-03-25T00:04:49.505Z,1.80
2018-03-25T00:07:17.762Z,1.80
2018-03-25T00:09:46.777Z,1.70
2018-03-25T00:12:15.037Z,1.60
2018-03-25T00:14:43.289Z,1.50
2018-03-25T00:17:11.544Z,1.40
2018-03-25T00:19:39.790Z,1.40
2018-03-25T00:22:08.053Z,1.40
2018-03-25T00:24:36.305Z,1.40
2018-03-25T00:27:04.557Z,1.30
2018-03-25T00:29:32.808Z,1.20
2018-03-25T00:32:01.065Z,1.20
2018-03-25T00:34:29.314Z,1.10
2018-03-25T00:36:58.338Z,1.20
2018-03-25T00:39:26.581Z,1.20
2018-03-25T00:41:55.610Z,1.20
2018-03-25T00:44:23.860Z,1.20
2018-03-25T00:46:52.875Z,1.20
2018-03-25T00:49:21.124Z,1.20
2018-03-25T00:51:50.147Z,1.30
2018-03-25T00:54:18.390Z,1.30
2018-03-25T00:56:47.407Z,1.30
2018-03-25T00:59:15.658Z,1.30
2018-03-25T01:01:43.902Z,1.20
2018-03-25T01:04:12.167Z,1.20
2018-03-25T01:06:40.416Z,1.30
2018-03-25T01:09:08.661Z,1.30
2018-03-25T01:11:37.674Z,1.40
2018-03-25T01:14:05.937Z,1.40
2018-03-25T01:16:34.950Z,1.30
2018-03-25T01:19:03.208Z,1.30
2018-03-25T01:21:32.226Z,0.90
2018-03-25T01:24:00.469Z,0.90
2018-03-25T01:26:29.481Z,0.60
2018-03-25T01:28:57.739Z,0.60
2018-03-25T01:31:26.761Z,0.60
2018-03-25T01:33:55.002Z,0.60
2018-03-25T01:36:24.013Z,0.40
2018-03-25T01:38:52.268Z,0.40
2018-03-25T01:41:21.289Z,0.40
2018-03-25T01:43:49.538Z,0.40
2018-03-25T01:46:18.562Z,0.30
2018-03-25T01:48:46.818Z,0.30
2018-03-25T01:51:15.835Z,0.20
2018-03-25T01:53:44.072Z,0.20
2018-03-25T01:56:13.093Z,0.10
2018-03-25T01:58:41.341Z,0.00
2018-03-25T02:01:10.357Z,0.00
2018-03-25T02:03:38.607Z,0.00
2018-03-25T02:06:06.873Z,-0.10
2018-03-25T02:08:35.131Z,-0.20
2018-03-25T02:11:03.382Z,-0.20
2018-03-25T02:13:31.643Z,-0.30
2018-03-25T02:15:59.911Z,-0.30
2018-03-25T02:18:28.937Z,-0.50
2018-03-25T02:20:57.194Z,-0.50
2018-03-25T02:23:25.456Z,-0.50
2018-03-25T02:25:54.487Z,-0.50
2018-03-25T02:28:22.739Z,-0.50
2018-03-25T02:30:51.011Z,-0.40
2018-03-25T02:33:19.254Z,-0.30
2018-03-25T02:35:47.514Z,-0.20
2018-03-25T02:38:15.766Z,-0.20
2018-03-25T02:40:44.026Z,-0.20
2018-03-25T02:43:12.267Z,-0.20
2018-03-25T02:45:41.303Z,-0.20
2018-03-25T02:48:09.555Z,-0.20
2018-03-25T02:50:37.814Z,-0.20
2018-03-25T02:53:06.830Z,-0.20
2018-03-25T02:55:35.089Z,-0.30
2018-03-25T02:58:03.357Z,-0.30
2018-03-25T03:00:32.375Z,-0.40
2018-03-25T03:03:00.641Z,-0.40
2018-03-25T03:05:28.892Z,-0.40
2018-03-25T03:07:57.930Z,-0.50
2018-03-25T03:10:26.183Z,-0.50
2018-03-25T03:12:54.453Z,-0.50
2018-03-25T03:15:22.722Z,-0.50
2018-03-25T03:17:51.755Z,-0.40
2018-03-25T03:20:20.008Z,-0.50
2018-03-25T03:22:48.273Z,-0.40
2018-03-25T03:25:17.285Z,-0.50
2018-03-25T03:27:45.601Z,-0.50
2018-03-25T03:30:13.810Z,-0.50
2018-03-25T03:32:42.836Z,-0.60
2018-03-25T03:35:11.089Z,-0.60
2018-03-25T03:37:40.130Z,-0.60
2018-03-25T03:40:08.389Z,-0.60
2018-03-25T03:42:36.646Z,-0.70
2018-03-25T03:45:04.901Z,-0.70
2018-03-25T03:47:33.931Z,-0.90
2018-03-25T03:50:02.184Z,-0.90
2018-03-25T03:52:30.462Z,-0.90
2018-03-25T03:54:58.712Z,-0.90
2018-03-25T03:57:27.737Z,-0.90
2018-03-25T03:59:55.993Z,-0.90
2018-03-25T04:02:25.017Z,-1.00
2018-03-25T04:04:53.269Z,-1.00
2018-03-25T04:07:21.729Z,-1.00
2018-03-25T04:09:50.751Z,-1.00
2018-03-25T04:12:19.013Z,-1.10
2018-03-25T04:14:47.273Z,-1.00
2018-03-25T04:17:16.289Z,-1.10
2018-03-25T04:19:44.554Z,-1.10
2018-03-25T04:22:13.566Z,-1.00
2018-03-25T04:24:41.821Z,-1.10
2018-03-25T04:27:10.843Z,-1.10
2018-03-25T04:29:39.100Z,-1.10
2018-03-25T04:32:07.362Z,-1.10
2018-03-25T04:34:36.385Z,-1.20
2018-03-25T04:37:04.637Z,-1.20
2018-03-25T04:39:33.668Z,-1.20
2018-03-25T04:42:01.926Z,-1.30
2018-03-25T04:44:30.183Z,-1.30
2018-03-25T04:46:59.206Z,-1.30
2018-03-25T04:49:27.463Z,-1.30
2018-03-25T04:51:55.721Z,-1.20
2018-03-25T04:54:24.742Z,-1.20
2018-03-25T04:56:53.061Z,-1.20
2018-03-25T04:59:21.313Z,-1.20
2018-03-25T05:01:49.567Z,-1.20
2018-03-25T05:04:17.825Z,-1.20
2018-03-25T05:06:46.081Z,-1.20
2018-03-25T05:09:14.343Z,-1.20
2018-03-25T05:11:42.590Z,-1.20
2018-03-25T05:14:10.875Z,-1.20
2018-03-25T05:16:39.129Z,-1.10
2018-03-25T05:19:07.381Z,-1.20
2018-03-25T05:21:36.404Z,-1.30
2018-03-25T05:24:04.658Z,-1.30
2018-03-25T05:26:32.927Z,-1.20
2018-03-25T05:29:01.206Z,-1.30
2018-03-25T05:31:29.465Z,-1.30
2018-03-25T05:33:58.477Z,-1.30
2018-03-25T05:36:26.739Z,-1.30
2018-03-25T05:38:55.764Z,-1.20
2018-03-25T05:41:24.019Z,-1.30
2018-03-25T05:43:52.277Z,-1.20
2018-03-25T05:46:21.302Z,-1.20
2018-03-25T05:48:49.547Z,-1.20
2018-03-25T05:51:18.569Z,-1.20
2018-03-25T05:53:46.821Z,-1.20
2018-03-25T05:56:15.851Z,-1.10
2018-03-25T05:58:44.105Z,-1.10
2018-03-25T06:01:12.363Z,-1.10
2018-03-25T06:03:41.381Z,-1.00
2018-03-25T06:06:09.645Z,-1.10
2018-03-25T06:08:38.664Z,-1.00
2018-03-25T06:11:06.910Z,-1.00
2018-03-25T06:13:35.169Z,-0.90
2018-03-25T06:16:04.185Z,-0.80
2018-03-25T06:18:32.447Z,-0.80
2018-03-25T06:21:01.462Z,-0.70
2018-03-25T06:23:29.722Z,-0.70
2018-03-25T06:25:57.973Z,-0.70
2018-03-25T06:28:27.001Z,-0.60
2018-03-25T06:30:55.261Z,-0.60
2018-03-25T06:33:24.290Z,-0.40
2018-03-25T06:35:52.548Z,-0.50
2018-03-25T06:38:20.809Z,-0.40
2018-03-25T06:40:49.830Z,-0.30
2018-03-25T06:43:18.092Z,-0.30
2018-03-25T06:45:46.347Z,-0.20
2018-03-25T06:48:15.363Z,0.00
2018-03-25T06:50:43.613Z,0.00
2018-03-25T06:53:12.631Z,0.10
2018-03-25T06:55:40.877Z,0.10
2018-03-25T06:58:09.893Z,0.30
2018-03-25T07:00:38.150Z,0.20
2018-03-25T07:03:07.162Z,0.40
2018-03-25T07:05:35.419Z,0.40
2018-03-25T07:08:04.436Z,0.60
2018-03-25T07:10:32.690Z,0.60
2018-03-25T07:13:01.720Z,0.80
2018-03-25T07:15:29.957Z,0.70
2018-03-25T07:17:58.972Z,1.00
2018-03-25T07:20:27.224Z,1.00
2018-03-25T07:22:56.244Z,1.20
2018-03-25T07:25:24.498Z,1.20
2018-03-25T07:27:53.514Z,1.40
2018-03-25T07:30:21.764Z,1.30
2018-03-25T07:32:50.783Z,1.50
2018-03-25T07:35:19.039Z,1.50
2018-03-25T07:37:47.294Z,1.60
2018-03-25T07:40:16.313Z,1.90
2018-03-25T07:42:44.570Z,1.90
2018-03-25T07:45:13.602Z,2.10
2018-03-25T07:47:41.846Z,2.10
2018-03-25T07:50:10.916Z,2.20
2018-03-25T07:52:39.110Z,2.20
2018-03-25T07:55:08.134Z,2.30
2018-03-25T07:57:36.385Z,2.20
2018-03-25T08:00:05.402Z,2.30
2018-03-25T08:02:33.649Z,2.30
2018-03-25T08:05:02.670Z,2.30
2018-03-25T08:07:30.934Z,2.30
2018-03-25T08:09:59.186Z,2.40
2018-03-25T08:12:28.209Z,2.70
2018-03-25T08:14:56.458Z,2.70
2018-03-25T08:17:25.477Z,2.80
2018-03-25T08:19:53.746Z,2.80
2018-03-25T08:22:21.999Z,2.90
2018-03-25T08:24:51.026Z,3.00
2018-03-25T08:27:19.280Z,3.00
2018-03-25T08:29:48.291Z,3.40
2018-03-25T08:32:16.532Z,3.40
2018-03-25T08:34:45.546Z,3.50
2018-03-25T08:37:13.802Z,3.50
2018-03-25T08:39:42.050Z,3.70
2018-03-25T08:42:10.305Z,4.00
2018-03-25T08:44:38.550Z,4.00
2018-03-25T08:47:06.810Z,4.30
2018-03-25T08:49:35.818Z,4.60
2018-03-25T08:52:04.058Z,4.50
2018-03-25T08:54:32.313Z,4.60
2018-03-25T08:57:00.553Z,4.80
2018-03-25T08:59:28.810Z,4.90
2018-03-25T09:01:57.820Z,5.10
2018-03-25T09:04:26.069Z,5.10
2018-03-25T09:06:55.082Z,4.90
2018-03-25T09:09:23.332Z,4.80
2018-03-25T09:11:51.580Z,5.00
2018-03-25T09:14:19.821Z,5.10
2018-03-25T09:16:48.066Z,5.10
2018-03-25T09:19:17.089Z,5.10
2018-03-25T09:21:45.353Z,5.10
2018-03-25T09:24:14.358Z,5.30
2018-03-25T09:26:42.603Z,5.20
2018-03-25T09:29:11.623Z,5.30
2018-03-25T09:31:39.865Z,5.30
2018-03-25T09:34:08.880Z,5.80
2018-03-25T09:36:37.178Z,5.70
2018-03-25T09:39:05.462Z,5.70
2018-03-25T09:41:33.731Z,5.90
2018-03-25T09:44:01.979Z,6.00
2018-03-25T09:46:30.990Z,6.10
2018-03-25T09:48:59.231Z,6.10
2018-03-25T09:51:27.505Z,6.10
2018-03-25T09:53:56.521Z,6.40
2018-03-25T09:56:25.535Z,6.70
2018-03-25T09:58:53.774Z,6.70
2018-03-25T10:01:38.685Z,6.80
2018-03-25T10:04:06.924Z,6.90
2018-03-25T10:06:35.941Z,7.00
2018-03-25T10:09:04.194Z,7.00
2018-03-25T10:11:33.255Z,7.20
2018-03-25T10:14:01.451Z,7.20
2018-03-25T10:16:30.468Z,7.40
2018-03-25T10:18:58.724Z,7.30
2018-03-25T10:21:26.958Z,7.50
2018-03-25T10:23:55.210Z,7.40
2018-03-25T10:26:24.273Z,7.40
2018-03-25T10:28:53.283Z,7.70
2018-03-25T10:31:21.534Z,7.70
2018-03-25T10:33:50.547Z,8.10
2018-03-25T10:36:18.803Z,8.10
2018-03-25T10:38:47.821Z,8.60
2018-03-25T10:41:16.078Z,8.50
2018-03-25T10:43:45.098Z,8.90
2018-03-25T10:46:13.353Z,8.80
2018-03-25T10:48:42.364Z,9.10
2018-03-25T10:57:48.112Z,9.50
2018-03-25T11:00:16.401Z,9.50
2018-03-25T11:02:45.497Z,9.80
2018-03-25T11:05:14.567Z,10.20
2018-03-25T11:07:42.914Z,10.10
2018-03-25T11:10:11.190Z,10.80
2018-03-25T11:12:39.530Z,11.10
2018-03-25T11:15:08.017Z,11.70
2018-03-25T11:18:11.472Z,11.90
2018-03-25T11:20:54.311Z,12.00
2018-03-25T11:23:23.508Z,12.40
2018-03-25T11:25:51.822Z,12.40
2018-03-25T11:28:20.110Z,12.80
2018-03-25T11:30:48.348Z,13.00
2018-03-25T11:33:20.060Z,13.90
2018-03-25T11:36:02.456Z,13.90
2018-03-25T11:38:30.811Z,13.90
2018-03-25T11:40:59.127Z,13.20
2018-03-25T11:43:27.513Z,12.40
2018-03-25T11:45:56.921Z,12.30
2018-03-25T12:02:28.025Z,13.80
2018-03-25T12:04:56.287Z,13.50
2018-03-25T12:07:24.537Z,13.80
2018-03-25T12:09:53.567Z,14.60
2018-03-25T12:12:21.815Z,14.60
2018-03-25T12:14:50.850Z,13.90
2018-03-25T12:17:19.093Z,13.90
2018-03-25T12:19:47.338Z,13.60
2018-03-25T12:22:15.599Z,14.20
2018-03-25T12:24:43.842Z,15.30
2018-03-25T12:27:12.098Z,15.30
2018-03-25T12:29:40.348Z,15.30
2018-03-25T12:32:09.374Z,15.30
2018-03-25T12:34:37.631Z,15.30
2018-03-25T12:37:05.886Z,15.10
2018-03-25T12:39:34.900Z,14.80
2018-03-25T12:42:03.177Z,14.80
2018-03-25T12:44:31.426Z,15.10
2018-03-25T12:47:00.446Z,15.30
2018-03-25T12:49:28.698Z,15.30
2018-03-25T12:51:57.716Z,14.70
2018-03-25T12:54:25.970Z,14.70
2018-03-25T12:56:54.989Z,13.00
2018-03-25T12:59:23.237Z,13.00
2018-03-25T13:01:52.258Z,13.90
2018-03-25T13:04:20.510Z,13.90
2018-03-25T13:06:49.535Z,15.30
2018-03-25T13:09:17.787Z,15.30
2018-03-25T13:11:46.817Z,15.00
2018-03-25T13:14:15.062Z,15.00
2018-03-25T13:16:43.329Z,14.70
2018-03-25T13:19:12.348Z,14.50
2018-03-25T13:21:40.598Z,14.50
2018-03-25T13:24:09.615Z,14.50
2018-03-25T13:26:37.868Z,14.50
2018-03-25T13:29:06.122Z,14.60
2018-03-25T13:31:34.385Z,13.90
2018-03-25T13:34:02.638Z,14.00
2018-03-25T13:36:30.889Z,14.20
2018-03-25T13:38:59.150Z,15.00
2018-03-25T13:41:28.159Z,15.70
2018-03-25T13:43:56.412Z,15.70
2018-03-25T13:46:25.445Z,15.70
2018-03-25T13:48:53.698Z,15.70
2018-03-25T13:51:21.948Z,15.80
2018-03-25T13:53:50.985Z,14.30
2018-03-25T13:56:19.226Z,14.30
2018-03-25T13:58:48.250Z,14.60
2018-03-25T14:01:16.502Z,14.60
2018-03-25T14:03:44.758Z,15.40
2018-03-25T14:06:13.768Z,16.50
2018-03-25T14:08:42.025Z,16.50
2018-03-25T14:11:11.041Z,16.40
2018-03-25T14:13:39.301Z,16.40
2018-03-25T14:16:08.327Z,15.60
2018-03-25T14:18:36.585Z,15.60
2018-03-25T14:21:04.829Z,16.30
2018-03-25T14:23:33.098Z,15.90
2018-03-25T14:26:01.342Z,15.70
2018-03-25T14:28:29.589Z,16.60
2018-03-25T14:30:57.849Z,16.60
2018-03-25T14:33:26.867Z,16.50
2018-03-25T14:35:55.127Z,16.50
2018-03-25T14:38:24.140Z,16.00
2018-03-25T14:40:52.394Z,16.00
2018-03-25T14:43:20.645Z,16.10
2018-03-25T14:45:48.957Z,16.40
2018-03-25T14:48:17.196Z,16.90
2018-03-25T14:50:46.217Z,16.90
2018-03-25T14:53:14.467Z,16.90
2018-03-25T14:55:42.731Z,16.30
2018-03-25T14:58:10.973Z,15.50
2018-03-25T15:00:39.234Z,16.40
2018-03-25T15:03:07.489Z,16.50
2018-03-25T15:05:36.531Z,16.30
2018-03-25T15:08:04.775Z,16.30
2018-03-25T15:10:33.030Z,16.40
2018-03-25T15:13:02.051Z,17.70
2018-03-25T15:15:30.306Z,17.70
2018-03-25T15:17:58.572Z,17.00
2018-03-25T15:20:27.585Z,17.80
2018-03-25T15:22:55.846Z,17.80
2018-03-25T15:25:24.865Z,17.20
2018-03-25T15:27:53.126Z,17.10
2018-03-25T15:30:21.366Z,17.10
2018-03-25T15:32:49.623Z,16.80
2018-03-25T15:35:18.013Z,17.20
2018-03-25T15:37:47.216Z,16.90
2018-03-25T15:40:16.390Z,16.50
2018-03-25T15:42:45.002Z,16.40
2018-03-25T15:45:13.254Z,16.40
2018-03-25T15:47:41.506Z,16.60
2018-03-25T15:50:09.912Z,16.40
2018-03-25T15:52:38.285Z,16.80
2018-03-25T15:55:06.664Z,16.10
2018-03-25T15:57:35.753Z,16.60
2018-03-25T16:00:04.027Z,16.50
2018-03-25T16:02:32.286Z,16.20
2018-03-25T16:05:00.857Z,15.90
2018-03-25T16:07:29.214Z,15.80
2018-03-25T16:09:57.621Z,15.50
2018-03-25T16:12:26.029Z,15.10
2018-03-25T16:14:55.211Z,14.50
2018-03-25T16:17:23.573Z,14.50
2018-03-25T16:19:51.918Z,14.70
2018-03-25T16:22:21.060Z,15.00
2018-03-25T16:24:49.601Z,15.00
2018-03-25T16:27:18.107Z,14.30
2018-03-25T16:29:46.389Z,14.50
2018-03-25T16:32:14.650Z,14.50
2018-03-25T16:34:42.906Z,14.30
2018-03-25T16:37:11.919Z,12.90
2018-03-25T16:39:40.180Z,12.90
2018-03-25T16:42:09.282Z,12.20
2018-03-25T16:44:37.694Z,12.10
2018-03-25T16:47:06.136Z,12.30
2018-03-25T16:49:35.147Z,12.30
2018-03-25T16:52:03.454Z,12.30
2018-03-25T16:54:31.703Z,12.30
2018-03-25T16:56:59.999Z,12.20
2018-03-25T16:59:28.359Z,12.00
2018-03-25T17:01:56.618Z,11.80
2018-03-25T17:04:24.874Z,11.70
2018-03-25T17:06:53.170Z,11.60
2018-03-25T17:09:21.480Z,11.40
2018-03-25T17:11:49.734Z,11.20
2018-03-25T17:14:17.995Z,11.10
2018-03-25T17:16:46.278Z,11.00
2018-03-25T17:19:14.527Z,10.80
2018-03-25T17:21:43.553Z,10.70
2018-03-25T17:24:11.813Z,10.70
2018-03-25T17:26:40.836Z,10.50
2018-03-25T17:29:09.092Z,10.50
2018-03-25T17:31:37.352Z,10.40
2018-03-25T17:34:06.370Z,10.10
2018-03-25T17:36:34.639Z,10.10
2018-03-25T17:39:02.890Z,10.00
2018-03-25T17:41:31.914Z,9.70
2018-03-25T17:44:00.157Z,9.60
2018-03-25T17:46:29.174Z,9.40
2018-03-25T17:48:57.438Z,9.40
2018-03-25T17:51:26.447Z,9.10
2018-03-25T17:53:54.702Z,9.10
2018-03-25T17:56:23.725Z,8.80
2018-03-25T17:58:51.974Z,8.70
2018-03-25T18:01:20.981Z,8.60
2018-03-25T18:03:49.326Z,8.60
2018-03-25T18:06:17.561Z,8.60
2018-03-25T18:08:45.826Z,8.60
2018-03-25T18:11:14.065Z,8.60
2018-03-25T18:13:43.082Z,8.60
2018-03-25T18:16:11.345Z,8.50
2018-03-25T18:18:40.359Z,8.40
2018-03-25T18:21:08.598Z,8.40
2018-03-25T18:23:37.609Z,8.20
2018-03-25T18:26:05.885Z,8.20
2018-03-25T18:28:34.887Z,8.10
2018-03-25T18:31:03.165Z,8.10
2018-03-25T18:33:31.406Z,8.00
2018-03-25T18:36:00.420Z,7.90
2018-03-25T18:38:28.662Z,7.90
2018-03-25T18:40:56.919Z,7.90
2018-03-25T18:43:25.181Z,7.90
2018-03-25T18:45:53.429Z,7.90
2018-03-25T18:48:21.671Z,7.90
2018-03-25T18:50:49.921Z,7.80
2018-03-25T18:53:18.179Z,7.80
2018-03-25T18:55:46.427Z,7.90
2018-03-25T18:58:14.671Z,7.80
2018-03-25T19:00:42.959Z,7.80
2018-03-25T19:03:11.165Z,7.80
2018-03-25T19:05:39.417Z,7.70
2018-03-25T19:08:08.434Z,7.60
2018-03-25T19:10:36.686Z,7.60
2018-03-25T19:13:05.702Z,7.50
2018-03-25T19:15:33.957Z,7.50
2018-03-25T19:18:02.966Z,7.40
2018-03-25T19:20:31.219Z,7.40
2018-03-25T19:23:00.217Z,7.50
2018-03-25T19:25:28.476Z,7.50
2018-03-25T19:27:56.722Z,7.40
2018-03-25T19:30:24.979Z,7.40
2018-03-25T19:32:53.221Z,7.40
2018-03-25T19:35:21.472Z,7.30
2018-03-25T19:37:49.732Z,7.10
2018-03-25T19:40:17.972Z,6.90
2018-03-25T19:42:46.228Z,6.80
2018-03-25T19:45:14.478Z,6.80
2018-03-25T19:47:42.733Z,6.70
2018-03-25T19:50:10.974Z,6.70
2018-03-25T19:52:39.227Z,6.60
2018-03-25T19:55:08.240Z,6.30
2018-03-25T19:57:36.518Z,6.20
2018-03-25T20:00:05.489Z,6.20
2018-03-25T20:02:33.763Z,6.20
2018-03-25T20:05:02.029Z,6.10
2018-03-25T20:07:31.045Z,6.00
2018-03-25T20:09:59.290Z,6.00
2018-03-25T20:12:28.313Z,5.90
2018-03-25T20:14:56.554Z,5.90
2018-03-25T20:17:24.801Z,5.90
2018-03-25T20:19:53.051Z,6.10
2018-03-25T20:22:21.304Z,6.30
2018-03-25T20:24:50.311Z,6.50
2018-03-25T20:27:18.627Z,6.50
2018-03-25T20:29:46.883Z,6.40
2018-03-25T20:32:15.146Z,6.20
2018-03-25T20:34:43.438Z,6.20
2018-03-25T20:37:11.772Z,6.30
2018-03-25T20:39:40.778Z,6.60
2018-03-25T20:42:09.024Z,6.60
2018-03-25T20:44:37.269Z,6.60
2018-03-25T20:47:05.608Z,6.80
2018-03-25T20:49:34.154Z,6.80
2018-03-25T20:52:02.403Z,6.70
2018-03-25T20:54:30.657Z,6.60
2018-03-25T20:56:58.902Z,6.50
2018-03-25T20:59:27.928Z,6.40
2018-03-25T21:01:56.153Z,6.40
2018-03-25T21:04:25.357Z,6.30
2018-03-25T21:06:53.614Z,6.30
2018-03-25T21:09:21.878Z,6.20
2018-03-25T21:11:50.175Z,6.30
2018-03-25T21:14:18.380Z,6.30
2018-03-25T21:16:46.626Z,6.50
2018-03-25T21:19:14.882Z,6.50
2018-03-25T21:21:43.128Z,6.50
2018-03-25T21:24:11.379Z,6.40
2018-03-25T21:26:40.390Z,6.50
2018-03-25T21:29:08.649Z,6.50
2018-03-25T21:31:37.750Z,6.70
2018-03-25T21:34:06.024Z,6.70
2018-03-25T21:36:34.279Z,6.60
2018-03-25T21:39:03.298Z,6.60
2018-03-25T21:41:31.563Z,6.60
2018-03-25T21:43:59.805Z,6.70
2018-03-25T21:46:28.070Z,6.60
2018-03-25T21:48:56.310Z,6.60
2018-03-25T21:51:24.565Z,6.60
2018-03-25T21:53:52.811Z,6.70
2018-03-25T21:56:21.053Z,6.70
2018-03-25T21:58:49.494Z,6.70
2018-03-25T22:01:17.742Z,6.60
2018-03-25T22:03:46.758Z,6.50
2018-03-25T22:06:15.774Z,6.60
2018-03-25T22:08:44.009Z,6.50
2018-03-25T22:11:13.029Z,6.50
2018-03-25T22:13:42.039Z,6.40
2018-03-25T22:16:10.290Z,6.40
2018-03-25T22:19:00.070Z,6.20
2018-03-25T22:21:29.140Z,6.00
2018-03-25T22:23:57.402Z,6.00
2018-03-25T22:26:25.641Z,5.90
2018-03-25T22:28:53.893Z,5.90
2018-03-25T22:31:22.144Z,5.90
2018-03-25T22:33:50.390Z,6.00
2018-03-25T22:36:18.634Z,6.10
2018-03-25T22:38:46.893Z,6.40
2018-03-25T22:41:15.143Z,6.50
2018-03-25T22:43:43.390Z,6.50
2018-03-25T22:46:11.638Z,6.70
2018-03-25T22:48:39.881Z,6.70
2018-03-25T22:51:08.947Z,6.80
2018-03-25T22:53:37.170Z,6.80
2018-03-25T22:56:05.417Z,6.70
2018-03-25T22:58:33.660Z,6.70
2018-03-25T23:01:01.902Z,6.60
2018-03-25T23:03:30.150Z,6.40
2018-03-25T23:05:59.163Z,5.50
2018-03-25T23:08:27.409Z,5.50
2018-03-25T23:10:55.666Z,5.20
2018-03-25T23:13:23.913Z,4.90
2018-03-25T23:15:52.170Z,4.70
2018-03-25T23:18:20.409Z,4.60
2018-03-25T23:20:49.432Z,4.50
2018-03-25T23:23:17.672Z,4.50
2018-03-25T23:25:45.971Z,4.60
2018-03-25T23:28:14.194Z,4.50
2018-03-25T23:30:42.454Z,4.50
2018-03-25T23:33:10.706Z,4.40
2018-03-25T23:35:39.713Z,4.40
2018-03-25T23:38:07.955Z,4.40
2018-03-25T23:40:36.978Z,4.70
2018-03-25T23:43:05.214Z,4.60
2018-03-25T23:45:33.457Z,4.80
2018-03-25T23:48:01.814Z,5.00
2018-03-25T23:50:30.054Z,5.10
2018-03-25T23:52:59.075Z,5.40
2018-03-25T23:55:27.318Z,5.40
2018-03-25T23:57:56.344Z,5.00
